sensor_id;sensor_type;location;lat;lon;timestamp;temperature;humidity
13123;DHT22;6627;50.920;12.050;2022-11-15T00:01:16;6.50;99.90
13123;DHT22;6627;50.920;12.050;2022-11-15T00:03:45;6.50;99.90
13123;DHT22;6627;50.920;12.050;2022-11-15T00:06:13;6.60;99.90
13123;DHT22;6627;50.920;12.050;2022-11-15T00:08:41;6.80;99.90
13123;DHT22;6627;50.920;12.050;2022-11-15T00:11:10;6.80;99.90
13123;DHT22;6627;50.920;12.050;2022-11-15T00:13:38;6.80;99.90
13123;DHT22;6627;50.920;12.050;2022-11-15T00:16:06;7.00;99.90
13123;DHT22;6627;50.920;12.050;2022-11-15T00:18:34;7.00;99.90
13123;DHT22;6627;50.920;12.050;2022-11-15T00:21:06;6.90;99.90
13123;DHT22;6627;50.920;12.050;2022-11-15T00:23:36;6.90;99.90
13123;DHT22;6627;50.920;12.050;2022-11-15T00:26:05;6.90;99.90
13123;DHT22;6627;50.920;12.050;2022-11-15T00:28:33;6.90;99.90
13123;DHT22;6627;50.920;12.050;2022-11-15T00:31:01;6.90;99.90
13123;DHT22;6627;50.920;12.050;2022-11-15T00:33:29;6.90;99.90
13123;DHT22;6627;50.920;12.050;2022-11-15T00:36:00;6.90;99.90
13123;DHT22;6627;50.920;12.050;2022-11-15T00:38:33;6.90;99.90
13123;DHT22;6627;50.920;12.050;2022-11-15T00:41:03;6.80;99.90
13123;DHT22;6627;50.920;12.050;2022-11-15T00:43:32;6.90;99.90
13123;DHT22;6627;50.920;12.050;2022-11-15T00:46:00;6.90;99.90
13123;DHT22;6627;50.920;12.050;2022-11-15T00:48:28;6.80;99.90
13123;DHT22;6627;50.920;12.050;2022-11-15T00:50:55;6.90;99.90
13123;DHT22;6627;50.920;12.050;2022-11-15T00:53:23;6.90;99.90
13123;DHT22;6627;50.920;12.050;2022-11-15T00:55:50;6.90;99.90
13123;DHT22;6627;50.920;12.050;2022-11-15T00:58:19;6.90;99.90
13123;DHT22;6627;50.920;12.050;2022-11-15T01:00:46;6.80;99.90
13123;DHT22;6627;50.920;12.050;2022-11-15T01:03:13;6.80;99.90
13123;DHT22;6627;50.920;12.050;2022-11-15T01:08:12;6.70;99.90
13123;DHT22;6627;50.920;12.050;2022-11-15T01:10:40;6.70;99.90
13123;DHT22;6627;50.920;12.050;2022-11-15T01:13:08;6.60;99.90
13123;DHT22;6627;50.920;12.050;2022-11-15T01:30:33;6.30;99.90
13123;DHT22;6627;50.920;12.050;2022-11-15T01:33:01;6.40;99.90
13123;DHT22;6627;50.920;12.050;2022-11-15T01:37:56;6.30;99.90
13123;DHT22;6627;50.920;12.050;2022-11-15T01:40:24;6.30;99.90
13123;DHT22;6627;50.920;12.050;2022-11-15T01:42:51;6.10;99.90
13123;DHT22;6627;50.920;12.050;2022-11-15T01:45:19;6.20;99.90
13123;DHT22;6627;50.920;12.050;2022-11-15T01:47:50;6.10;99.90
13123;DHT22;6627;50.920;12.050;2022-11-15T01:50:24;6.20;99.90
13123;DHT22;6627;50.920;12.050;2022-11-15T01:52:55;6.20;99.90
13123;DHT22;6627;50.920;12.050;2022-11-15T01:55:25;6.20;99.90
13123;DHT22;6627;50.920;12.050;2022-11-15T01:57:57;6.20;99.90
13123;DHT22;6627;50.920;12.050;2022-11-15T02:00:29;6.20;99.90
13123;DHT22;6627;50.920;12.050;2022-11-15T02:02:58;6.10;99.90
13123;DHT22;6627;50.920;12.050;2022-11-15T02:05:26;6.10;99.90
13123;DHT22;6627;50.920;12.050;2022-11-15T02:07:54;6.10;99.90
13123;DHT22;6627;50.920;12.050;2022-11-15T02:10:23;6.00;99.90
13123;DHT22;6627;50.920;12.050;2022-11-15T02:12:52;6.10;99.90
13123;DHT22;6627;50.920;12.050;2022-11-15T02:15:22;6.10;99.90
13123;DHT22;6627;50.920;12.050;2022-11-15T02:18:05;6.10;99.90
13123;DHT22;6627;50.920;12.050;2022-11-15T02:29:32;6.40;99.90
13123;DHT22;6627;50.920;12.050;2022-11-15T02:32:20;6.30;99.90
13123;DHT22;6627;50.920;12.050;2022-11-15T02:35:02;6.30;99.90
13123;DHT22;6627;50.920;12.050;2022-11-15T02:37:42;6.30;99.90
13123;DHT22;6627;50.920;12.050;2022-11-15T02:40:20;6.40;99.90
13123;DHT22;6627;50.920;12.050;2022-11-15T02:42:55;6.40;99.90
13123;DHT22;6627;50.920;12.050;2022-11-15T02:45:47;6.40;99.90
13123;DHT22;6627;50.920;12.050;2022-11-15T02:48:20;6.50;99.90
13123;DHT22;6627;50.920;12.050;2022-11-15T02:50:49;6.50;99.90
13123;DHT22;6627;50.920;12.050;2022-11-15T02:53:23;6.60;99.90
13123;DHT22;6627;50.920;12.050;2022-11-15T02:55:51;6.50;99.90
13123;DHT22;6627;50.920;12.050;2022-11-15T02:58:49;6.40;99.90
13123;DHT22;6627;50.920;12.050;2022-11-15T03:01:37;6.40;99.90
13123;DHT22;6627;50.920;12.050;2022-11-15T03:04:20;6.40;99.90
13123;DHT22;6627;50.920;12.050;2022-11-15T03:07:01;6.40;99.90
13123;DHT22;6627;50.920;12.050;2022-11-15T03:09:42;6.50;99.90
13123;DHT22;6627;50.920;12.050;2022-11-15T03:12:25;6.50;99.90
13123;DHT22;6627;50.920;12.050;2022-11-15T03:15:01;6.50;99.90
13123;DHT22;6627;50.920;12.050;2022-11-15T03:17:37;6.60;99.90
13123;DHT22;6627;50.920;12.050;2022-11-15T03:20:10;6.60;99.90
13123;DHT22;6627;50.920;12.050;2022-11-15T03:22:43;6.50;99.90
13123;DHT22;6627;50.920;12.050;2022-11-15T03:25:17;6.50;99.90
13123;DHT22;6627;50.920;12.050;2022-11-15T03:27:51;6.50;99.90
13123;DHT22;6627;50.920;12.050;2022-11-15T03:30:21;6.50;99.90
13123;DHT22;6627;50.920;12.050;2022-11-15T03:32:51;6.50;99.90
13123;DHT22;6627;50.920;12.050;2022-11-15T03:35:25;6.50;99.90
13123;DHT22;6627;50.920;12.050;2022-11-15T03:37:59;6.40;99.90
13123;DHT22;6627;50.920;12.050;2022-11-15T03:40:35;6.50;99.90
13123;DHT22;6627;50.920;12.050;2022-11-15T03:43:10;6.40;99.90
13123;DHT22;6627;50.920;12.050;2022-11-15T03:45:50;6.30;99.90
13123;DHT22;6627;50.920;12.050;2022-11-15T03:48:24;6.30;99.90
13123;DHT22;6627;50.920;12.050;2022-11-15T03:50:57;6.30;99.90
13123;DHT22;6627;50.920;12.050;2022-11-15T03:53:24;6.30;99.90
13123;DHT22;6627;50.920;12.050;2022-11-15T03:55:52;6.20;99.90
13123;DHT22;6627;50.920;12.050;2022-11-15T03:58:19;6.20;99.90
13123;DHT22;6627;50.920;12.050;2022-11-15T04:00:47;6.20;99.90
13123;DHT22;6627;50.920;12.050;2022-11-15T04:03:14;6.20;99.90
13123;DHT22;6627;50.920;12.050;2022-11-15T04:05:41;6.10;99.90
13123;DHT22;6627;50.920;12.050;2022-11-15T04:08:10;6.10;99.90
13123;DHT22;6627;50.920;12.050;2022-11-15T04:10:37;6.00;99.90
13123;DHT22;6627;50.920;12.050;2022-11-15T04:13:05;6.00;99.90
13123;DHT22;6627;50.920;12.050;2022-11-15T04:15:32;5.90;99.90
13123;DHT22;6627;50.920;12.050;2022-11-15T04:23:17;5.80;99.90
13123;DHT22;6627;50.920;12.050;2022-11-15T04:26:04;5.80;99.90
13123;DHT22;6627;50.920;12.050;2022-11-15T04:28:36;5.70;99.90
13123;DHT22;6627;50.920;12.050;2022-11-15T04:31:24;5.50;99.90
13123;DHT22;6627;50.920;12.050;2022-11-15T04:33:51;5.30;99.90
13123;DHT22;6627;50.920;12.050;2022-11-15T04:36:19;5.30;99.90
13123;DHT22;6627;50.920;12.050;2022-11-15T04:39:06;5.20;99.90
13123;DHT22;6627;50.920;12.050;2022-11-15T04:41:34;5.20;99.90
13123;DHT22;6627;50.920;12.050;2022-11-15T04:44:01;5.30;99.90
13123;DHT22;6627;50.920;12.050;2022-11-15T04:46:28;5.40;99.90
13123;DHT22;6627;50.920;12.050;2022-11-15T04:48:56;5.50;99.90
13123;DHT22;6627;50.920;12.050;2022-11-15T04:51:23;5.60;99.90
13123;DHT22;6627;50.920;12.050;2022-11-15T04:53:50;5.70;99.90
13123;DHT22;6627;50.920;12.050;2022-11-15T04:56:19;5.80;99.90
13123;DHT22;6627;50.920;12.050;2022-11-15T04:58:48;5.80;99.90
13123;DHT22;6627;50.920;12.050;2022-11-15T05:01:15;5.80;99.90
13123;DHT22;6627;50.920;12.050;2022-11-15T05:03:43;5.90;99.90
13123;DHT22;6627;50.920;12.050;2022-11-15T05:06:28;5.90;99.90
13123;DHT22;6627;50.920;12.050;2022-11-15T05:08:56;5.80;99.90
13123;DHT22;6627;50.920;12.050;2022-11-15T05:11:25;5.90;99.90
13123;DHT22;6627;50.920;12.050;2022-11-15T05:13:53;6.00;99.90
13123;DHT22;6627;50.920;12.050;2022-11-15T05:16:20;6.10;99.90
13123;DHT22;6627;50.920;12.050;2022-11-15T05:18:50;6.00;99.90
13123;DHT22;6627;50.920;12.050;2022-11-15T05:21:18;6.00;99.90
13123;DHT22;6627;50.920;12.050;2022-11-15T05:23:46;6.00;99.90
13123;DHT22;6627;50.920;12.050;2022-11-15T05:26:18;5.90;99.90
13123;DHT22;6627;50.920;12.050;2022-11-15T05:28:51;5.90;99.90
13123;DHT22;6627;50.920;12.050;2022-11-15T05:31:19;6.00;99.90
13123;DHT22;6627;50.920;12.050;2022-11-15T05:33:48;5.90;99.90
13123;DHT22;6627;50.920;12.050;2022-11-15T05:36:20;5.90;99.90
13123;DHT22;6627;50.920;12.050;2022-11-15T05:38:54;5.90;99.90
13123;DHT22;6627;50.920;12.050;2022-11-15T05:41:26;5.90;99.90
13123;DHT22;6627;50.920;12.050;2022-11-15T05:43:57;5.90;99.90
13123;DHT22;6627;50.920;12.050;2022-11-15T05:46:26;5.80;99.90
13123;DHT22;6627;50.920;12.050;2022-11-15T05:48:55;5.90;99.90
13123;DHT22;6627;50.920;12.050;2022-11-15T05:51:24;5.90;99.90
13123;DHT22;6627;50.920;12.050;2022-11-15T05:53:55;6.00;99.90
13123;DHT22;6627;50.920;12.050;2022-11-15T05:56:25;6.00;99.90
13123;DHT22;6627;50.920;12.050;2022-11-15T05:58:53;6.00;99.90
13123;DHT22;6627;50.920;12.050;2022-11-15T06:01:25;6.00;99.90
13123;DHT22;6627;50.920;12.050;2022-11-15T06:03:54;6.00;99.90
13123;DHT22;6627;50.920;12.050;2022-11-15T06:06:21;6.00;99.90
13123;DHT22;6627;50.920;12.050;2022-11-15T06:08:49;6.00;99.90
13123;DHT22;6627;50.920;12.050;2022-11-15T06:11:16;6.10;99.90
13123;DHT22;6627;50.920;12.050;2022-11-15T06:13:43;6.10;99.90
13123;DHT22;6627;50.920;12.050;2022-11-15T06:16:12;6.10;99.90
13123;DHT22;6627;50.920;12.050;2022-11-15T06:18:39;6.10;99.90
13123;DHT22;6627;50.920;12.050;2022-11-15T06:21:08;6.10;99.90
13123;DHT22;6627;50.920;12.050;2022-11-15T06:23:35;6.20;99.90
13123;DHT22;6627;50.920;12.050;2022-11-15T06:26:03;6.30;99.90
13123;DHT22;6627;50.920;12.050;2022-11-15T06:28:32;6.30;99.90
13123;DHT22;6627;50.920;12.050;2022-11-15T06:31:02;6.30;99.90
13123;DHT22;6627;50.920;12.050;2022-11-15T06:33:31;6.20;99.90
13123;DHT22;6627;50.920;12.050;2022-11-15T06:36:01;6.20;99.90
13123;DHT22;6627;50.920;12.050;2022-11-15T06:38:29;6.30;99.90
13123;DHT22;6627;50.920;12.050;2022-11-15T06:41:01;6.20;99.90
13123;DHT22;6627;50.920;12.050;2022-11-15T06:43:29;6.20;99.90
13123;DHT22;6627;50.920;12.050;2022-11-15T06:45:57;6.20;99.90
13123;DHT22;6627;50.920;12.050;2022-11-15T06:48:25;6.20;99.90
13123;DHT22;6627;50.920;12.050;2022-11-15T06:50:55;6.10;99.90
13123;DHT22;6627;50.920;12.050;2022-11-15T06:53:24;6.10;99.90
13123;DHT22;6627;50.920;12.050;2022-11-15T06:55:52;6.20;99.90
13123;DHT22;6627;50.920;12.050;2022-11-15T06:58:20;6.30;99.90
13123;DHT22;6627;50.920;12.050;2022-11-15T07:00:48;6.30;99.90
13123;DHT22;6627;50.920;12.050;2022-11-15T07:03:16;6.20;99.90
13123;DHT22;6627;50.920;12.050;2022-11-15T07:05:50;6.30;99.90
13123;DHT22;6627;50.920;12.050;2022-11-15T07:08:26;6.30;99.90
13123;DHT22;6627;50.920;12.050;2022-11-15T07:10:54;6.30;99.90
13123;DHT22;6627;50.920;12.050;2022-11-15T07:13:24;6.30;99.90
13123;DHT22;6627;50.920;12.050;2022-11-15T07:15:52;6.30;99.90
13123;DHT22;6627;50.920;12.050;2022-11-15T07:18:20;6.30;99.90
13123;DHT22;6627;50.920;12.050;2022-11-15T07:20:47;6.30;99.90
13123;DHT22;6627;50.920;12.050;2022-11-15T07:23:14;6.30;99.90
13123;DHT22;6627;50.920;12.050;2022-11-15T07:25:43;6.30;99.90
13123;DHT22;6627;50.920;12.050;2022-11-15T07:28:10;6.40;99.90
13123;DHT22;6627;50.920;12.050;2022-11-15T07:30:37;6.40;99.90
13123;DHT22;6627;50.920;12.050;2022-11-15T07:33:05;6.40;99.90
13123;DHT22;6627;50.920;12.050;2022-11-15T07:35:32;6.40;99.90
13123;DHT22;6627;50.920;12.050;2022-11-15T07:38:02;6.40;99.90
13123;DHT22;6627;50.920;12.050;2022-11-15T07:40:30;6.50;99.90
13123;DHT22;6627;50.920;12.050;2022-11-15T07:43:02;6.50;99.90
13123;DHT22;6627;50.920;12.050;2022-11-15T07:45:32;6.50;99.90
13123;DHT22;6627;50.920;12.050;2022-11-15T07:48:00;6.60;99.90
13123;DHT22;6627;50.920;12.050;2022-11-15T07:50:28;6.70;99.90
13123;DHT22;6627;50.920;12.050;2022-11-15T07:52:58;6.70;99.90
13123;DHT22;6627;50.920;12.050;2022-11-15T07:55:27;6.80;99.90
13123;DHT22;6627;50.920;12.050;2022-11-15T07:58:01;6.90;99.90
13123;DHT22;6627;50.920;12.050;2022-11-15T08:00:30;7.00;99.90
13123;DHT22;6627;50.920;12.050;2022-11-15T08:03:03;7.00;99.90
13123;DHT22;6627;50.920;12.050;2022-11-15T08:05:34;7.20;99.90
13123;DHT22;6627;50.920;12.050;2022-11-15T08:08:02;7.30;99.90
13123;DHT22;6627;50.920;12.050;2022-11-15T08:10:30;7.30;99.90
13123;DHT22;6627;50.920;12.050;2022-11-15T08:12:59;7.40;99.90
13123;DHT22;6627;50.920;12.050;2022-11-15T08:15:29;7.40;99.90
13123;DHT22;6627;50.920;12.050;2022-11-15T08:17:59;7.60;99.90
13123;DHT22;6627;50.920;12.050;2022-11-15T08:20:28;7.70;99.90
13123;DHT22;6627;50.920;12.050;2022-11-15T08:22:57;7.70;99.90
13123;DHT22;6627;50.920;12.050;2022-11-15T08:25:27;7.90;99.90
13123;DHT22;6627;50.920;12.050;2022-11-15T08:27:57;7.90;99.90
13123;DHT22;6627;50.920;12.050;2022-11-15T08:30:28;8.10;99.90
13123;DHT22;6627;50.920;12.050;2022-11-15T08:32:57;8.20;99.90
13123;DHT22;6627;50.920;12.050;2022-11-15T08:35:25;8.40;99.90
13123;DHT22;6627;50.920;12.050;2022-11-15T08:37:53;8.50;99.90
13123;DHT22;6627;50.920;12.050;2022-11-15T08:40:21;8.60;99.90
13123;DHT22;6627;50.920;12.050;2022-11-15T08:42:48;8.70;99.90
13123;DHT22;6627;50.920;12.050;2022-11-15T08:45:16;8.80;99.90
13123;DHT22;6627;50.920;12.050;2022-11-15T08:47:45;8.90;99.90
13123;DHT22;6627;50.920;12.050;2022-11-15T08:50:13;9.10;99.90
13123;DHT22;6627;50.920;12.050;2022-11-15T08:52:40;9.10;99.90
13123;DHT22;6627;50.920;12.050;2022-11-15T08:55:08;9.20;99.90
13123;DHT22;6627;50.920;12.050;2022-11-15T08:57:35;9.30;99.90
13123;DHT22;6627;50.920;12.050;2022-11-15T09:00:03;9.40;99.90
13123;DHT22;6627;50.920;12.050;2022-11-15T09:02:32;9.50;99.90
13123;DHT22;6627;50.920;12.050;2022-11-15T09:05:01;9.70;99.90
13123;DHT22;6627;50.920;12.050;2022-11-15T09:07:28;9.70;99.90
13123;DHT22;6627;50.920;12.050;2022-11-15T09:09:56;9.80;99.90
13123;DHT22;6627;50.920;12.050;2022-11-15T09:12:25;9.90;99.90
13123;DHT22;6627;50.920;12.050;2022-11-15T09:14:53;10.00;99.90
13123;DHT22;6627;50.920;12.050;2022-11-15T09:17:21;10.10;99.90
13123;DHT22;6627;50.920;12.050;2022-11-15T09:19:49;10.30;99.90
13123;DHT22;6627;50.920;12.050;2022-11-15T09:22:18;10.40;99.90
13123;DHT22;6627;50.920;12.050;2022-11-15T09:24:47;10.60;99.90
13123;DHT22;6627;50.920;12.050;2022-11-15T09:27:14;10.70;99.90
13123;DHT22;6627;50.920;12.050;2022-11-15T09:29:41;10.70;99.90
13123;DHT22;6627;50.920;12.050;2022-11-15T09:32:09;10.90;99.90
13123;DHT22;6627;50.920;12.050;2022-11-15T09:34:36;11.00;99.90
13123;DHT22;6627;50.920;12.050;2022-11-15T09:37:05;11.00;99.90
13123;DHT22;6627;50.920;12.050;2022-11-15T09:42:12;11.30;99.90
13123;DHT22;6627;50.920;12.050;2022-11-15T09:47:56;11.40;99.90
13123;DHT22;6627;50.920;12.050;2022-11-15T09:50:38;11.40;99.90
13123;DHT22;6627;50.920;12.050;2022-11-15T09:53:14;11.60;99.90
13123;DHT22;6627;50.920;12.050;2022-11-15T09:55:56;11.70;99.90
13123;DHT22;6627;50.920;12.050;2022-11-15T09:58:34;11.90;99.90
13123;DHT22;6627;50.920;12.050;2022-11-15T10:01:17;12.00;99.90
13123;DHT22;6627;50.920;12.050;2022-11-15T10:04:01;12.10;99.90
13123;DHT22;6627;50.920;12.050;2022-11-15T10:06:28;12.20;99.90
13123;DHT22;6627;50.920;12.050;2022-11-15T10:09:01;12.20;99.90
13123;DHT22;6627;50.920;12.050;2022-11-15T10:11:36;12.30;99.90
13123;DHT22;6627;50.920;12.050;2022-11-15T10:14:10;12.40;99.90
13123;DHT22;6627;50.920;12.050;2022-11-15T10:20:11;12.50;99.90
13123;DHT22;6627;50.920;12.050;2022-11-15T10:25:19;12.80;99.90
13123;DHT22;6627;50.920;12.050;2022-11-15T10:30:23;12.90;99.90
13123;DHT22;6627;50.920;12.050;2022-11-15T10:32:58;12.90;99.90
13123;DHT22;6627;50.920;12.050;2022-11-15T10:35:37;13.00;99.90
13123;DHT22;6627;50.920;12.050;2022-11-15T10:38:05;13.20;99.90
13123;DHT22;6627;50.920;12.050;2022-11-15T10:40:35;13.30;99.90
13123;DHT22;6627;50.920;12.050;2022-11-15T10:43:13;13.30;99.90
13123;DHT22;6627;50.920;12.050;2022-11-15T10:45:44;13.40;99.90
13123;DHT22;6627;50.920;12.050;2022-11-15T10:48:24;13.40;99.90
13123;DHT22;6627;50.920;12.050;2022-11-15T10:50:53;13.50;99.90
13123;DHT22;6627;50.920;12.050;2022-11-15T10:53:33;13.60;99.90
13123;DHT22;6627;50.920;12.050;2022-11-15T10:56:14;13.70;99.90
13123;DHT22;6627;50.920;12.050;2022-11-15T10:58:52;13.70;99.90
13123;DHT22;6627;50.920;12.050;2022-11-15T11:08:59;14.20;99.90
13123;DHT22;6627;50.920;12.050;2022-11-15T11:11:45;14.10;99.90
13123;DHT22;6627;50.920;12.050;2022-11-15T11:14:20;14.20;99.90
13123;DHT22;6627;50.920;12.050;2022-11-15T11:16:54;14.20;99.90
13123;DHT22;6627;50.920;12.050;2022-11-15T11:19:38;14.20;99.90
13123;DHT22;6627;50.920;12.050;2022-11-15T11:22:20;14.30;99.90
13123;DHT22;6627;50.920;12.050;2022-11-15T11:25:04;14.30;99.90
13123;DHT22;6627;50.920;12.050;2022-11-15T11:27:53;14.40;99.90
13123;DHT22;6627;50.920;12.050;2022-11-15T11:30:42;14.50;99.90
13123;DHT22;6627;50.920;12.050;2022-11-15T11:33:19;14.60;99.90
13123;DHT22;6627;50.920;12.050;2022-11-15T11:36:03;14.50;99.90
13123;DHT22;6627;50.920;12.050;2022-11-15T11:38:55;14.60;99.90
13123;DHT22;6627;50.920;12.050;2022-11-15T11:41:51;14.80;99.90
13123;DHT22;6627;50.920;12.050;2022-11-15T11:44:28;14.80;99.90
13123;DHT22;6627;50.920;12.050;2022-11-15T11:47:09;14.90;99.90
13123;DHT22;6627;50.920;12.050;2022-11-15T11:49:42;14.90;99.90
13123;DHT22;6627;50.920;12.050;2022-11-15T11:52:16;15.00;99.90
13123;DHT22;6627;50.920;12.050;2022-11-15T11:54:55;15.10;99.90
13123;DHT22;6627;50.920;12.050;2022-11-15T11:57:34;15.20;99.90
13123;DHT22;6627;50.920;12.050;2022-11-15T12:00:17;15.30;99.90
13123;DHT22;6627;50.920;12.050;2022-11-15T12:02:54;15.30;99.90
13123;DHT22;6627;50.920;12.050;2022-11-15T12:05:34;15.30;99.90
13123;DHT22;6627;50.920;12.050;2022-11-15T12:08:20;15.30;99.90
13123;DHT22;6627;50.920;12.050;2022-11-15T12:11:01;15.40;99.90
13123;DHT22;6627;50.920;12.050;2022-11-15T12:13:36;15.40;99.90
13123;DHT22;6627;50.920;12.050;2022-11-15T12:16:11;15.40;99.90
13123;DHT22;6627;50.920;12.050;2022-11-15T12:18:46;15.50;99.90
13123;DHT22;6627;50.920;12.050;2022-11-15T12:21:21;15.50;99.90
13123;DHT22;6627;50.920;12.050;2022-11-15T12:24:00;15.60;99.90
13123;DHT22;6627;50.920;12.050;2022-11-15T12:26:34;15.60;99.90
13123;DHT22;6627;50.920;12.050;2022-11-15T12:29:11;15.50;99.90
13123;DHT22;6627;50.920;12.050;2022-11-15T12:31:45;15.50;99.90
13123;DHT22;6627;50.920;12.050;2022-11-15T12:34:40;15.50;99.90
13123;DHT22;6627;50.920;12.050;2022-11-15T12:37:33;15.50;99.90
13123;DHT22;6627;50.920;12.050;2022-11-15T12:40:23;15.40;99.90
13123;DHT22;6627;50.920;12.050;2022-11-15T12:46:05;15.50;99.90
13123;DHT22;6627;50.920;12.050;2022-11-15T12:48:58;15.60;99.90
13123;DHT22;6627;50.920;12.050;2022-11-15T12:52:04;15.70;99.90
13123;DHT22;6627;50.920;12.050;2022-11-15T12:54:55;15.80;99.90
13123;DHT22;6627;50.920;12.050;2022-11-15T12:57:40;15.80;99.90
13123;DHT22;6627;50.920;12.050;2022-11-15T13:00:42;15.80;99.90
13123;DHT22;6627;50.920;12.050;2022-11-15T13:03:27;15.80;99.90
13123;DHT22;6627;50.920;12.050;2022-11-15T13:06:02;15.80;99.90
13123;DHT22;6627;50.920;12.050;2022-11-15T13:08:49;15.80;99.90
13123;DHT22;6627;50.920;12.050;2022-11-15T13:11:43;15.90;99.90
13123;DHT22;6627;50.920;12.050;2022-11-15T13:17:34;15.80;99.90
13123;DHT22;6627;50.920;12.050;2022-11-15T13:20:22;15.80;99.90
13123;DHT22;6627;50.920;12.050;2022-11-15T13:22:59;15.80;99.90
13123;DHT22;6627;50.920;12.050;2022-11-15T13:25:51;15.90;99.90
13123;DHT22;6627;50.920;12.050;2022-11-15T13:28:44;15.90;99.90
13123;DHT22;6627;50.920;12.050;2022-11-15T13:31:21;16.00;99.90
13123;DHT22;6627;50.920;12.050;2022-11-15T13:33:57;15.90;99.90
13123;DHT22;6627;50.920;12.050;2022-11-15T13:36:30;15.90;99.90
13123;DHT22;6627;50.920;12.050;2022-11-15T13:39:02;16.00;99.90
13123;DHT22;6627;50.920;12.050;2022-11-15T13:41:34;16.00;99.90
13123;DHT22;6627;50.920;12.050;2022-11-15T13:44:03;15.90;99.90
13123;DHT22;6627;50.920;12.050;2022-11-15T13:46:45;15.90;99.90
13123;DHT22;6627;50.920;12.050;2022-11-15T13:49:12;15.90;99.90
13123;DHT22;6627;50.920;12.050;2022-11-15T13:51:44;15.90;99.90
13123;DHT22;6627;50.920;12.050;2022-11-15T13:54:19;15.70;99.90
13123;DHT22;6627;50.920;12.050;2022-11-15T13:56:53;15.60;99.90
13123;DHT22;6627;50.920;12.050;2022-11-15T13:59:25;15.40;99.90
13123;DHT22;6627;50.920;12.050;2022-11-15T14:01:57;15.30;99.90
13123;DHT22;6627;50.920;12.050;2022-11-15T14:04:29;14.90;99.90
13123;DHT22;6627;50.920;12.050;2022-11-15T14:07:02;15.00;99.90
13123;DHT22;6627;50.920;12.050;2022-11-15T14:09:33;14.90;99.90
13123;DHT22;6627;50.920;12.050;2022-11-15T14:12:28;15.00;99.90
13123;DHT22;6627;50.920;12.050;2022-11-15T14:14:58;14.90;99.90
13123;DHT22;6627;50.920;12.050;2022-11-15T14:17:37;14.70;99.90
13123;DHT22;6627;50.920;12.050;2022-11-15T14:20:24;14.60;99.90
13123;DHT22;6627;50.920;12.050;2022-11-15T14:22:55;14.50;99.90
13123;DHT22;6627;50.920;12.050;2022-11-15T14:25:24;14.00;99.90
13123;DHT22;6627;50.920;12.050;2022-11-15T14:28:16;13.90;99.90
13123;DHT22;6627;50.920;12.050;2022-11-15T14:30:58;14.00;99.90
13123;DHT22;6627;50.920;12.050;2022-11-15T14:33:28;14.10;99.90
13123;DHT22;6627;50.920;12.050;2022-11-15T14:36:10;14.10;99.90
13123;DHT22;6627;50.920;12.050;2022-11-15T14:38:39;14.00;99.90
13123;DHT22;6627;50.920;12.050;2022-11-15T14:41:17;13.90;99.90
13123;DHT22;6627;50.920;12.050;2022-11-15T14:43:48;14.00;99.90
13123;DHT22;6627;50.920;12.050;2022-11-15T14:46:17;13.70;99.90
13123;DHT22;6627;50.920;12.050;2022-11-15T14:48:45;13.40;99.90
13123;DHT22;6627;50.920;12.050;2022-11-15T14:51:14;13.20;99.90
13123;DHT22;6627;50.920;12.050;2022-11-15T14:53:44;13.20;99.90
13123;DHT22;6627;50.920;12.050;2022-11-15T14:56:14;13.10;99.90
13123;DHT22;6627;50.920;12.050;2022-11-15T14:58:42;13.10;99.90
13123;DHT22;6627;50.920;12.050;2022-11-15T15:01:13;13.00;99.90
13123;DHT22;6627;50.920;12.050;2022-11-15T15:03:47;12.90;99.90
13123;DHT22;6627;50.920;12.050;2022-11-15T15:06:14;12.80;99.90
13123;DHT22;6627;50.920;12.050;2022-11-15T15:08:41;12.90;99.90
13123;DHT22;6627;50.920;12.050;2022-11-15T15:11:11;13.00;99.90
13123;DHT22;6627;50.920;12.050;2022-11-15T15:13:42;12.80;99.90
13123;DHT22;6627;50.920;12.050;2022-11-15T15:16:11;12.60;99.90
13123;DHT22;6627;50.920;12.050;2022-11-15T15:18:38;12.40;99.90
13123;DHT22;6627;50.920;12.050;2022-11-15T15:21:20;12.30;99.90
13123;DHT22;6627;50.920;12.050;2022-11-15T15:23:49;12.20;99.90
13123;DHT22;6627;50.920;12.050;2022-11-15T15:26:17;12.00;99.90
13123;DHT22;6627;50.920;12.050;2022-11-15T15:28:45;11.70;99.90
13123;DHT22;6627;50.920;12.050;2022-11-15T15:31:15;11.60;99.90
13123;DHT22;6627;50.920;12.050;2022-11-15T15:33:44;11.50;99.90
13123;DHT22;6627;50.920;12.050;2022-11-15T15:36:14;11.20;99.90
13123;DHT22;6627;50.920;12.050;2022-11-15T15:38:44;11.20;99.90
13123;DHT22;6627;50.920;12.050;2022-11-15T15:41:14;11.20;99.90
13123;DHT22;6627;50.920;12.050;2022-11-15T15:43:42;11.20;99.90
13123;DHT22;6627;50.920;12.050;2022-11-15T15:46:12;11.10;99.90
13123;DHT22;6627;50.920;12.050;2022-11-15T15:48:43;11.10;99.90
13123;DHT22;6627;50.920;12.050;2022-11-15T15:51:11;11.00;99.90
13123;DHT22;6627;50.920;12.050;2022-11-15T15:53:39;10.90;99.90
13123;DHT22;6627;50.920;12.050;2022-11-15T15:56:06;10.80;99.90
13123;DHT22;6627;50.920;12.050;2022-11-15T15:58:35;10.60;99.90
13123;DHT22;6627;50.920;12.050;2022-11-15T16:01:03;10.30;99.90
13123;DHT22;6627;50.920;12.050;2022-11-15T16:03:31;10.10;99.90
13123;DHT22;6627;50.920;12.050;2022-11-15T16:05:59;9.90;99.90
13123;DHT22;6627;50.920;12.050;2022-11-15T16:08:28;9.70;99.90
13123;DHT22;6627;50.920;12.050;2022-11-15T16:10:55;9.50;99.90
13123;DHT22;6627;50.920;12.050;2022-11-15T16:13:22;9.50;99.90
13123;DHT22;6627;50.920;12.050;2022-11-15T16:15:52;9.30;99.90
13123;DHT22;6627;50.920;12.050;2022-11-15T16:18:21;9.40;99.90
13123;DHT22;6627;50.920;12.050;2022-11-15T16:20:50;9.30;99.90
13123;DHT22;6627;50.920;12.050;2022-11-15T16:23:22;9.30;99.90
13123;DHT22;6627;50.920;12.050;2022-11-15T16:25:51;9.20;99.90
13123;DHT22;6627;50.920;12.050;2022-11-15T16:28:23;9.10;99.90
13123;DHT22;6627;50.920;12.050;2022-11-15T16:31:00;9.20;99.90
13123;DHT22;6627;50.920;12.050;2022-11-15T16:33:28;9.00;99.90
13123;DHT22;6627;50.920;12.050;2022-11-15T16:35:57;9.00;99.90
13123;DHT22;6627;50.920;12.050;2022-11-15T16:38:24;8.90;99.90
13123;DHT22;6627;50.920;12.050;2022-11-15T16:40:51;9.00;99.90
13123;DHT22;6627;50.920;12.050;2022-11-15T16:43:19;9.20;99.90
13123;DHT22;6627;50.920;12.050;2022-11-15T16:45:46;9.20;99.90
13123;DHT22;6627;50.920;12.050;2022-11-15T16:48:21;9.30;99.90
13123;DHT22;6627;50.920;12.050;2022-11-15T16:50:51;8.80;99.90
13123;DHT22;6627;50.920;12.050;2022-11-15T16:53:23;8.70;99.90
13123;DHT22;6627;50.920;12.050;2022-11-15T16:55:51;8.70;99.90
13123;DHT22;6627;50.920;12.050;2022-11-15T16:58:19;8.80;99.90
13123;DHT22;6627;50.920;12.050;2022-11-15T17:00:49;8.90;99.90
13123;DHT22;6627;50.920;12.050;2022-11-15T17:03:17;9.00;99.90
13123;DHT22;6627;50.920;12.050;2022-11-15T17:05:44;8.60;99.90
13123;DHT22;6627;50.920;12.050;2022-11-15T17:08:12;8.30;99.90
13123;DHT22;6627;50.920;12.050;2022-11-15T17:10:44;8.10;99.90
13123;DHT22;6627;50.920;12.050;2022-11-15T17:13:11;8.00;99.90
13123;DHT22;6627;50.920;12.050;2022-11-15T17:15:39;8.00;99.90